Time;durP1;ratioP1;P1;durP2;ratioP2;P2;SDS_P1;SDS_P2;PMS_P1;PMS_P2;Temp;Humidity;BMP_temperature;BMP_pressure;BME280_temperature;BME280_humidity;BME280_pressure;Samples;Min_cycle;Max_cycle;Signal;HPM_P1;HPM_P2
2021/04/21 00:01:48;;;;;;;68.35;37.30;;;7.80;99.90;;;;;;5052769;28;20028;-56
2021/04/21 00:04:15;;;;;;;65.68;36.00;;;7.90;99.90;;;;;;5050782;28;20116;-53
2021/04/21 00:06:42;;;;;;;72.65;37.88;;;7.90;99.90;;;;;;5054146;28;20436;-55
2021/04/21 00:09:17;;;;;;;64.15;36.67;;;7.90;99.90;;;;;;5047045;28;20450;-55
2021/04/21 00:11:43;;;;;;;63.20;36.35;;;7.90;99.90;;;;;;5051000;28;20492;-54
2021/04/21 00:14:16;;;;;;;67.70;35.65;;;7.90;99.90;;;;;;5050367;28;20029;-53
2021/04/21 00:16:44;;;;;;;68.40;37.22;;;7.70;99.90;;;;;;5051672;28;20407;-53
2021/04/21 00:19:11;;;;;;;64.18;35.83;;;7.60;99.90;;;;;;5052736;28;20051;-53
2021/04/21 00:21:39;;;;;;;71.18;37.42;;;7.60;99.90;;;;;;5050767;28;20083;-55
2021/04/21 00:24:09;;;;;;;77.00;42.28;;;7.60;99.90;;;;;;5053728;28;20254;-53
2021/04/21 00:26:35;;;;;;;74.88;40.92;;;7.70;99.90;;;;;;5050466;28;20075;-51
2021/04/21 00:29:04;;;;;;;91.53;46.75;;;7.70;99.90;;;;;;5050666;28;20025;-56
2021/04/21 00:31:31;;;;;;;73.22;41.35;;;7.70;99.90;;;;;;5049703;28;20059;-54
2021/04/21 00:33:59;;;;;;;72.70;40.80;;;7.70;99.90;;;;;;5053098;28;20545;-54
2021/04/21 00:36:26;;;;;;;78.88;42.75;;;7.70;99.90;;;;;;5050060;28;20027;-54
2021/04/21 00:38:52;;;;;;;84.57;44.75;;;7.70;99.90;;;;;;5049901;28;20051;-53
2021/04/21 00:41:21;;;;;;;74.65;40.33;;;7.60;99.90;;;;;;5053249;28;20573;-51
2021/04/21 00:44:44;;;;;;;81.10;44.08;;;7.60;99.90;;;;;;5050306;28;20063;-54
2021/04/21 00:47:16;;;;;;;79.18;43.50;;;7.50;99.90;;;;;;4963005;28;20018;-50
2021/04/21 00:50:01;;;;;;;94.47;46.28;;;7.50;99.90;;;;;;4956089;28;20032;-50
2021/04/21 00:52:48;;;;;;;81.65;45.45;;;7.60;99.90;;;;;;5014740;28;20033;-52
2021/04/21 00:55:27;;;;;;;78.28;42.70;;;7.60;99.90;;;;;;5045326;28;20078;-51
2021/04/21 00:58:10;;;;;;;87.95;48.45;;;7.70;99.90;;;;;;5050121;28;20482;-51
2021/04/21 01:00:44;;;;;;;81.32;44.90;;;7.80;99.90;;;;;;5049843;28;20082;-54
2021/04/21 01:03:12;;;;;;;;;;;7.90;99.90;;;;;;5048317;28;20017;-52
2021/04/21 01:05:41;;;;;;;82.20;44.00;;;7.90;99.90;;;;;;5052733;28;20317;-51
2021/04/21 01:08:12;;;;;;;82.18;45.33;;;8.00;99.90;;;;;;5055547;28;20074;-54
2021/04/21 01:10:46;;;;;;;97.13;48.85;;;8.00;99.90;;;;;;5050485;28;20079;-54
2021/04/21 01:13:13;;;;;;;88.88;49.03;;;7.90;99.90;;;;;;5059498;28;20025;-54
2021/04/21 01:15:41;;;;;;;77.13;44.92;;;7.80;99.90;;;;;;5051323;28;20040;-53
2021/04/21 01:18:10;;;;;;;78.35;43.97;;;7.70;99.90;;;;;;5049274;28;20033;-55
2021/04/21 01:21:02;;;;;;;91.40;47.05;;;7.70;99.90;;;;;;5052790;28;20077;-54
2021/04/21 01:24:05;;;;;;;89.20;46.88;;;7.60;99.90;;;;;;5055363;28;20024;-54
2021/04/21 01:26:46;;;;;;;92.18;48.90;;;7.50;99.90;;;;;;5037478;28;20040;-54
2021/04/21 01:29:18;;;;;;;86.50;44.42;;;7.30;99.90;;;;;;5045845;28;20237;-55
2021/04/21 01:31:46;;;;;;;81.45;44.88;;;7.10;99.90;;;;;;5052124;28;20375;-52
2021/04/21 01:34:14;;;;;;;91.15;43.80;;;7.10;99.90;;;;;;5059038;28;20070;-52
2021/04/21 01:36:42;;;;;;;78.85;45.78;;;7.10;99.90;;;;;;5047694;28;20025;-55
2021/04/21 01:39:10;;;;;;;103.40;53.13;;;7.10;99.90;;;;;;5048910;28;20029;-51
2021/04/21 01:41:40;;;;;;;97.57;51.25;;;7.10;99.90;;;;;;5049544;28;20460;-51
2021/04/21 01:44:14;;;;;;;94.88;49.28;;;7.00;99.90;;;;;;5048597;28;20479;-51
2021/04/21 01:46:43;;;;;;;93.47;50.00;;;6.90;99.90;;;;;;5047699;28;20029;-52
2021/04/21 01:49:21;;;;;;;103.47;52.72;;;6.80;99.90;;;;;;5049827;28;20036;-53
2021/04/21 01:51:53;;;;;;;106.60;55.47;;;6.80;99.90;;;;;;5048895;28;20053;-51
2021/04/21 01:54:19;;;;;;;101.82;52.03;;;6.70;99.90;;;;;;5054700;28;20394;-49
2021/04/21 01:56:51;;;;;;;112.07;55.28;;;6.70;99.90;;;;;;5046641;28;20037;-50
2021/04/21 01:59:35;;;;;;;108.55;50.50;;;6.70;99.90;;;;;;5049774;28;20029;-50
2021/04/21 02:02:28;;;;;;;111.65;56.70;;;6.70;99.90;;;;;;5051634;28;20033;-51
2021/04/21 02:05:03;;;;;;;110.93;54.85;;;6.80;99.90;;;;;;5044455;28;20111;-53
2021/04/21 02:07:35;;;;;;;93.55;48.65;;;6.60;99.90;;;;;;5049763;28;20437;-53
2021/04/21 02:10:11;;;;;;;97.25;50.13;;;6.50;99.90;;;;;;5049944;28;20112;-50
2021/04/21 02:12:42;;;;;;;95.45;51.53;;;6.50;99.90;;;;;;5049136;28;20479;-54
2021/04/21 02:15:14;;;;;;;108.97;53.42;;;6.50;99.90;;;;;;5052506;28;20055;-52
2021/04/21 02:17:49;;;;;;;112.53;56.42;;;6.50;99.90;;;;;;5049440;28;20025;-51
2021/04/21 02:20:35;;;;;;;105.88;53.47;;;6.40;99.90;;;;;;5046522;28;20040;-54
2021/04/21 02:23:27;;;;;;;106.50;53.47;;;6.40;99.90;;;;;;5045299;28;20025;-52
2021/04/21 02:26:04;;;;;;;110.60;54.33;;;6.50;99.90;;;;;;5048910;28;20032;-54
2021/04/21 02:28:52;;;;;;;96.50;52.90;;;6.60;99.90;;;;;;5045767;28;20028;-55
2021/04/21 02:31:28;;;;;;;105.03;55.25;;;6.70;99.90;;;;;;5047019;28;20023;-54
2021/04/21 02:34:20;;;;;;;102.60;53.80;;;6.60;99.90;;;;;;5049231;28;20029;-51
2021/04/21 02:36:59;;;;;;;93.68;51.47;;;6.50;99.90;;;;;;5048174;28;20554;-54
2021/04/21 02:39:35;;;;;;;100.90;53.42;;;6.50;99.90;;;;;;5053935;28;20040;-53
2021/04/21 02:42:18;;;;;;;111.38;56.13;;;6.40;99.90;;;;;;5053603;28;20039;-52
2021/04/21 02:45:08;;;;;;;94.05;48.80;;;6.30;99.90;;;;;;5051355;28;20390;-52
2021/04/21 02:47:39;;;;;;;106.85;54.30;;;6.30;99.90;;;;;;5048658;28;20032;-50
2021/04/21 02:50:12;;;;;;;99.90;53.53;;;6.20;99.90;;;;;;5056430;28;20020;-55
2021/04/21 02:52:56;;;;;;;111.10;55.35;;;6.20;99.90;;;;;;5053959;28;20081;-52
2021/04/21 02:56:03;;;;;;;124.60;59.88;;;6.10;99.90;;;;;;5056925;28;20028;-53
2021/04/21 02:58:52;;;;;;;112.53;56.97;;;6.10;99.90;;;;;;5053286;28;20032;-50
2021/04/21 03:01:40;;;;;;;111.93;54.53;;;6.00;99.90;;;;;;5055097;28;20542;-51
2021/04/21 03:04:19;;;;;;;114.38;56.25;;;6.00;99.90;;;;;;5049711;28;20063;-54
2021/04/21 03:06:49;;;;;;;120.47;56.55;;;6.00;99.90;;;;;;5052077;28;20503;-49
2021/04/21 03:09:18;;;;;;;113.60;54.35;;;6.10;99.90;;;;;;5051746;28;20499;-51
2021/04/21 03:11:46;;;;;;;114.28;56.25;;;6.20;99.90;;;;;;5055022;28;20029;-54
2021/04/21 03:14:22;;;;;;;115.60;55.35;;;6.20;99.90;;;;;;5049920;28;20033;-54
2021/04/21 03:17:06;;;;;;;108.32;54.13;;;6.10;99.90;;;;;;5052785;28;20055;-53
2021/04/21 03:19:42;;;;;;;112.85;57.28;;;6.10;99.90;;;;;;5051909;28;20142;-54
2021/04/21 03:22:14;;;;;;;114.97;56.05;;;6.00;99.90;;;;;;5052363;28;20041;-51
2021/04/21 03:25:11;;;;;;;112.13;53.00;;;6.00;99.90;;;;;;5046525;28;20079;-51
2021/04/21 03:27:41;;;;;;;107.85;50.72;;;6.00;99.90;;;;;;5051732;28;20029;-51
2021/04/21 03:30:16;;;;;;;103.53;54.05;;;5.90;99.90;;;;;;5051347;28;20661;-53
2021/04/21 03:32:48;;;;;;;113.15;57.75;;;5.90;99.90;;;;;;5051753;28;20487;-51
2021/04/21 03:35:14;;;;;;;112.47;57.28;;;5.80;99.90;;;;;;5051816;28;20047;-54
2021/04/21 03:37:48;;;;;;;109.93;54.72;;;5.80;99.90;;;;;;5051588;28;20040;-55
2021/04/21 03:40:15;;;;;;;114.78;57.67;;;5.80;99.90;;;;;;5051803;28;20024;-53
2021/04/21 03:42:42;;;;;;;126.25;60.20;;;5.90;99.90;;;;;;5051135;28;20380;-53
2021/04/21 03:45:09;;;;;;;130.70;61.25;;;5.80;99.90;;;;;;5053917;28;20435;-54
2021/04/21 03:47:35;;;;;;;129.82;63.78;;;5.90;99.90;;;;;;5051220;28;20033;-52
2021/04/21 03:50:03;;;;;;;117.10;60.08;;;5.80;99.90;;;;;;5051602;28;20116;-52
2021/04/21 03:52:29;;;;;;;115.22;56.80;;;5.90;99.90;;;;;;5056116;28;20029;-53
2021/04/21 03:54:56;;;;;;;114.85;54.83;;;6.00;99.90;;;;;;5050049;28;20116;-54
2021/04/21 03:57:24;;;;;;;116.18;57.63;;;6.10;99.90;;;;;;5051688;28;20032;-55
2021/04/21 03:59:52;;;;;;;122.95;59.28;;;6.10;99.90;;;;;;5050928;28;20036;-52
2021/04/21 04:02:21;;;;;;;116.35;56.22;;;6.10;99.90;;;;;;5054166;28;20025;-54
2021/04/21 04:04:56;;;;;;;106.82;54.17;;;6.00;99.90;;;;;;5050095;28;20414;-54
2021/04/21 04:07:24;;;;;;;113.72;58.33;;;6.00;99.90;;;;;;5052435;28;20299;-50
2021/04/21 04:09:50;;;;;;;111.50;54.00;;;6.00;99.90;;;;;;5050711;28;20029;-52
2021/04/21 04:12:19;;;;;;;107.18;53.72;;;5.90;99.90;;;;;;5052643;28;20035;-54
2021/04/21 04:14:46;;;;;;;102.70;52.22;;;5.90;99.90;;;;;;5054883;28;20116;-54
2021/04/21 04:17:15;;;;;;;112.22;53.28;;;5.80;99.90;;;;;;5050703;28;20031;-51
2021/04/21 04:19:42;;;;;;;106.65;52.63;;;5.90;99.90;;;;;;5052726;28;20032;-51
2021/04/21 04:22:18;;;;;;;100.72;53.30;;;6.00;99.90;;;;;;5050957;28;20037;-48
2021/04/21 04:24:56;;;;;;;107.63;53.42;;;6.00;99.90;;;;;;5048775;28;20024;-55
2021/04/21 04:27:24;;;;;;;107.65;53.80;;;5.90;99.90;;;;;;5051585;28;20021;-54
2021/04/21 04:29:51;;;;;;;115.07;55.53;;;5.90;99.90;;;;;;5054137;28;20115;-54
2021/04/21 04:32:19;;;;;;;112.97;55.33;;;5.80;99.90;;;;;;5046697;28;20033;-55
2021/04/21 04:34:50;;;;;;;104.53;51.80;;;5.90;99.90;;;;;;5049981;28;20106;-54
2021/04/21 04:37:19;;;;;;;121.55;56.65;;;6.00;99.90;;;;;;5049875;28;20029;-56
2021/04/21 04:39:45;;;;;;;116.80;54.67;;;5.90;99.90;;;;;;5049929;28;20029;-51
2021/04/21 04:42:12;;;;;;;101.55;52.47;;;5.90;99.90;;;;;;5049690;28;20143;-53
2021/04/21 04:44:43;;;;;;;113.82;55.08;;;6.00;99.90;;;;;;5050228;28;20054;-54
2021/04/21 04:47:36;;;;;;;116.68;55.67;;;6.00;99.90;;;;;;5051471;28;20017;-54
2021/04/21 04:50:08;;;;;;;110.05;55.75;;;6.00;99.90;;;;;;5046617;28;20033;-53
2021/04/21 04:52:42;;;;;;;103.07;53.33;;;6.10;99.90;;;;;;5049744;28;20055;-53
2021/04/21 04:55:11;;;;;;;110.93;55.17;;;6.10;99.90;;;;;;5049376;28;20021;-51
2021/04/21 04:57:43;;;;;;;114.47;57.08;;;6.00;99.90;;;;;;5050283;28;20532;-53
2021/04/21 05:00:12;;;;;;;112.63;54.67;;;6.00;99.90;;;;;;5049078;28;20040;-54
2021/04/21 05:02:49;;;;;;;106.22;52.55;;;6.00;99.90;;;;;;5046575;28;20526;-52
2021/04/21 05:05:16;;;;;;;107.72;52.90;;;6.00;99.90;;;;;;5047158;28;20057;-54
2021/04/21 05:07:46;;;;;;;104.47;54.17;;;5.90;99.90;;;;;;5050508;28;20154;-54
2021/04/21 05:10:26;;;;;;;115.90;55.00;;;5.90;99.90;;;;;;5050173;28;20044;-53
2021/04/21 05:12:56;;;;;;;107.85;52.55;;;5.90;99.90;;;;;;5053180;28;20051;-53
2021/04/21 05:15:39;;;;;;;107.00;53.15;;;6.00;99.90;;;;;;5049142;28;20017;-55
2021/04/21 05:18:35;;;;;;;108.40;54.40;;;6.10;99.90;;;;;;5046815;28;20088;-53
2021/04/21 05:21:04;;;;;;;117.95;55.47;;;6.10;99.90;;;;;;5050599;28;20566;-53
2021/04/21 05:24:14;;;;;;;110.75;56.00;;;6.20;99.90;;;;;;5049501;28;20102;-55
2021/04/21 05:27:10;;;;;;;105.93;53.95;;;6.30;99.90;;;;;;5050830;28;20130;-55
2021/04/21 05:30:11;;;;;;;106.53;55.08;;;6.40;99.90;;;;;;5045097;28;20025;-51
2021/04/21 05:33:00;;;;;;;98.00;51.83;;;6.60;99.90;;;;;;5048380;28;20028;-50
2021/04/21 05:36:03;;;;;;;104.32;52.20;;;6.70;99.90;;;;;;5044089;28;20025;-53
2021/04/21 05:38:43;;;;;;;100.28;52.08;;;6.80;99.90;;;;;;5049611;28;20028;-56
2021/04/21 05:41:31;;;;;;;104.25;53.80;;;7.00;99.90;;;;;;5050867;28;20036;-55
2021/04/21 05:44:08;;;;;;;96.65;50.05;;;7.20;99.90;;;;;;5049424;28;20191;-55
2021/04/21 05:46:55;;;;;;;112.65;55.20;;;7.40;99.90;;;;;;5048707;28;20082;-54
2021/04/21 05:49:45;;;;;;;96.55;52.05;;;7.60;99.90;;;;;;5049557;28;20025;-55
2021/04/21 05:52:10;;;;;;;96.93;52.88;;;7.70;99.90;;;;;;5050162;28;20028;-54
2021/04/21 05:54:54;;;;;;;94.78;52.10;;;7.90;99.90;;;;;;5049786;28;20124;-55
2021/04/21 05:57:29;;;;;;;97.93;51.30;;;8.00;99.90;;;;;;5045729;28;20057;-54
2021/04/21 06:00:27;;;;;;;99.95;54.10;;;8.10;99.90;;;;;;5052893;28;20043;-52
2021/04/21 06:02:53;;;;;;;101.93;54.58;;;8.30;99.90;;;;;;5042571;28;20033;-52
2021/04/21 06:05:19;;;;;;;103.35;55.53;;;8.40;99.90;;;;;;5034097;28;20111;-53
2021/04/21 06:07:45;;;;;;;99.20;55.47;;;8.50;99.90;;;;;;5053204;28;20100;-54
2021/04/21 06:10:28;;;;;;;103.63;55.97;;;8.50;99.90;;;;;;5051475;28;20050;-53
2021/04/21 06:12:58;;;;;;;99.32;54.13;;;8.60;99.90;;;;;;5054671;28;20033;-56
2021/04/21 06:15:32;;;;;;;107.18;57.15;;;8.70;99.90;;;;;;5048004;28;20021;-53
2021/04/21 06:18:01;;;;;;;112.93;57.15;;;8.70;99.90;;;;;;5053193;28;20056;-55
2021/04/21 06:20:39;;;;;;;100.93;54.00;;;8.80;99.90;;;;;;5052557;28;20052;-55
2021/04/21 06:23:11;;;;;;;106.95;54.80;;;8.90;99.90;;;;;;5052082;28;20044;-57
2021/04/21 06:25:40;;;;;;;94.88;52.47;;;9.00;99.90;;;;;;5057318;28;20544;-55
2021/04/21 06:28:11;;;;;;;104.93;55.03;;;9.10;99.90;;;;;;5037544;28;20422;-53
2021/04/21 06:30:37;;;;;;;95.70;54.10;;;9.10;99.90;;;;;;5047821;28;20025;-55
2021/04/21 06:33:04;;;;;;;89.90;50.83;;;9.00;99.90;;;;;;5052643;28;20028;-54
2021/04/21 06:35:31;;;;;;;102.13;53.80;;;9.10;99.90;;;;;;5053289;28;20112;-56
2021/04/21 06:37:57;;;;;;;95.18;54.47;;;9.20;99.90;;;;;;5051297;28;20387;-54
2021/04/21 06:40:28;;;;;;;93.13;50.15;;;9.20;99.90;;;;;;5051870;28;20123;-54
2021/04/21 06:42:55;;;;;;;105.20;53.47;;;9.20;99.90;;;;;;5052529;28;20492;-53
2021/04/21 06:45:35;;;;;;;103.63;57.88;;;9.30;99.90;;;;;;5056101;28;20086;-52
2021/04/21 06:48:04;;;;;;;118.22;59.38;;;9.20;99.90;;;;;;5051682;28;20359;-52
2021/04/21 06:50:35;;;;;;;115.07;63.55;;;9.20;99.90;;;;;;5051307;28;20724;-52
2021/04/21 06:53:06;;;;;;;120.53;63.25;;;9.20;99.90;;;;;;5051317;28;20101;-53
2021/04/21 06:55:33;;;;;;;124.55;65.57;;;9.10;99.90;;;;;;5055023;28;20064;-53
2021/04/21 06:57:59;;;;;;;127.75;67.75;;;9.10;99.90;;;;;;5051498;28;20033;-52
2021/04/21 07:00:27;;;;;;;132.80;65.65;;;9.00;99.90;;;;;;5053897;28;20112;-53
2021/04/21 07:02:56;;;;;;;128.68;62.35;;;9.00;99.90;;;;;;5051328;28;20094;-54
2021/04/21 07:05:30;;;;;;;118.82;59.33;;;9.00;99.90;;;;;;5054252;28;20033;-55
2021/04/21 07:08:18;;;;;;;115.35;59.33;;;9.10;99.90;;;;;;5051604;28;20037;-54
2021/04/21 07:10:53;;;;;;;126.43;64.13;;;9.20;99.90;;;;;;5052029;28;20043;-54
2021/04/21 07:13:18;;;;;;;;;;;9.20;99.90;;;;;;5054382;28;20040;-52
2021/04/21 07:15:44;;;;;;;120.25;61.13;;;9.20;99.90;;;;;;5051762;28;19948;-53
2021/04/21 07:18:16;;;;;;;128.00;67.53;;;9.30;99.90;;;;;;5049006;28;20036;-54
2021/04/21 07:20:42;;;;;;;125.80;67.50;;;9.40;99.90;;;;;;5053939;28;20059;-55
2021/04/21 07:23:10;;;;;;;114.32;61.92;;;9.50;99.90;;;;;;5050568;28;20483;-55
2021/04/21 07:25:38;;;;;;;115.70;64.35;;;9.60;99.90;;;;;;5048428;28;20513;-54
2021/04/21 07:28:04;;;;;;;111.50;61.15;;;9.70;99.90;;;;;;5050712;28;20028;-53
2021/04/21 07:30:32;;;;;;;103.68;57.05;;;9.70;99.90;;;;;;5049644;28;20021;-56
2021/04/21 07:32:58;;;;;;;109.50;58.63;;;9.90;99.90;;;;;;5049176;28;20483;-55
2021/04/21 07:35:26;;;;;;;99.72;54.80;;;9.90;99.90;;;;;;5046397;28;20033;-53
2021/04/21 07:37:55;;;;;;;105.05;55.90;;;9.90;99.90;;;;;;5045965;28;20065;-51
2021/04/21 07:40:34;;;;;;;109.05;53.88;;;9.90;99.90;;;;;;5050131;28;20029;-54
2021/04/21 07:43:16;;;;;;;106.93;56.53;;;9.90;99.90;;;;;;5050654;28;20029;-58
2021/04/21 07:45:54;;;;;;;111.65;58.17;;;10.00;99.90;;;;;;5046123;28;20379;-54
2021/04/21 07:48:37;;;;;;;103.60;58.35;;;10.00;99.90;;;;;;5027353;28;20017;-55
2021/04/21 07:51:15;;;;;;;115.15;57.88;;;10.10;99.90;;;;;;5050657;28;20033;-55
2021/04/21 07:53:55;;;;;;;123.38;60.90;;;10.30;99.90;;;;;;5050974;28;20108;-53
2021/04/21 07:56:22;;;;;;;174.02;64.07;;;10.30;99.90;;;;;;5048931;28;20449;-54
2021/04/21 07:58:49;;;;;;;100.22;56.65;;;10.30;99.90;;;;;;5046237;28;20024;-56
2021/04/21 08:01:16;;;;;;;173.38;62.70;;;10.30;99.90;;;;;;5050581;28;20273;-53
2021/04/21 08:03:42;;;;;;;91.80;53.10;;;10.40;99.90;;;;;;5050488;28;20029;-56
2021/04/21 08:06:08;;;;;;;91.53;51.55;;;10.50;99.90;;;;;;5049146;28;20421;-53
2021/04/21 08:08:35;;;;;;;101.07;55.47;;;10.50;99.90;;;;;;5049006;28;20115;-51
2021/04/21 08:11:03;;;;;;;97.15;56.08;;;10.60;99.90;;;;;;5042130;28;20032;-52
2021/04/21 08:13:46;;;;;;;104.00;57.22;;;10.70;99.90;;;;;;5040897;28;20037;-53
2021/04/21 08:16:25;;;;;;;112.50;60.92;;;10.80;99.90;;;;;;5047740;28;20062;-55
2021/04/21 08:18:53;;;;;;;109.25;58.33;;;10.80;99.90;;;;;;5052068;28;20021;-52
2021/04/21 08:21:43;;;;;;;105.10;57.85;;;10.80;99.90;;;;;;5047015;28;20053;-53
2021/04/21 08:24:19;;;;;;;108.15;60.88;;;10.90;99.90;;;;;;5042658;28;20487;-54
2021/04/21 08:26:49;;;;;;;117.25;61.03;;;11.00;99.90;;;;;;5041426;28;20090;-52
2021/04/21 08:29:16;;;;;;;117.72;61.08;;;11.20;99.90;;;;;;5040411;28;20111;-55
2021/04/21 08:31:50;;;;;;;105.28;59.10;;;11.20;99.90;;;;;;5047531;28;20037;-53
2021/04/21 08:34:16;;;;;;;118.20;60.47;;;11.20;99.90;;;;;;5048964;28;20037;-55
2021/04/21 08:36:42;;;;;;;127.50;64.72;;;11.30;99.90;;;;;;5045929;28;20102;-53
2021/04/21 08:39:08;;;;;;;201.05;67.43;;;11.30;99.90;;;;;;5042865;28;20408;-52
2021/04/21 08:41:38;;;;;;;183.68;71.05;;;11.40;99.90;;;;;;5041199;28;20033;-56
2021/04/21 08:44:05;;;;;;;117.07;63.58;;;11.40;99.90;;;;;;5039072;28;20032;-55
2021/04/21 08:46:31;;;;;;;126.65;64.25;;;11.50;99.90;;;;;;5046097;28;20103;-54
2021/04/21 08:49:01;;;;;;;160.90;65.88;;;11.50;99.90;;;;;;5047874;28;20154;-52
2021/04/21 08:51:27;;;;;;;152.30;69.32;;;11.50;99.90;;;;;;5047673;28;20425;-54
2021/04/21 08:54:04;;;;;;;406.42;116.25;;;11.60;99.90;;;;;;5046340;28;20062;-57
2021/04/21 08:56:32;;;;;;;166.43;87.93;;;11.70;99.90;;;;;;5041219;28;20356;-54
2021/04/21 08:58:58;;;;;;;128.65;71.10;;;11.70;99.90;;;;;;5041834;28;20115;-54
2021/04/21 09:01:25;;;;;;;120.03;67.97;;;11.80;99.90;;;;;;5023873;28;20612;-56
2021/04/21 09:03:52;;;;;;;140.65;67.25;;;11.90;99.90;;;;;;5039089;28;20055;-55
2021/04/21 09:06:19;;;;;;;140.75;70.55;;;12.00;99.90;;;;;;5039822;28;20479;-54
2021/04/21 09:08:50;;;;;;;130.52;69.20;;;12.10;99.90;;;;;;5039440;28;20044;-55
2021/04/21 09:11:17;;;;;;;114.78;66.22;;;12.20;99.90;;;;;;5039985;28;20032;-53
2021/04/21 09:13:42;;;;;;;116.18;65.20;;;12.40;99.90;;;;;;5042036;28;20446;-52
2021/04/21 09:16:08;;;;;;;109.30;63.05;;;12.40;99.90;;;;;;5042113;28;21597;-52
2021/04/21 09:18:35;;;;;;;118.88;64.45;;;12.50;99.90;;;;;;5040787;28;20032;-55
2021/04/21 09:21:03;;;;;;;121.55;62.97;;;12.60;99.90;;;;;;5040401;28;20048;-53
2021/04/21 09:23:47;;;;;;;132.23;66.47;;;12.80;99.90;;;;;;5045173;28;20021;-50
2021/04/21 09:26:16;;;;;;;115.23;65.00;;;12.90;99.90;;;;;;5046464;28;20032;-52
2021/04/21 09:28:43;;;;;;;139.23;65.82;;;13.00;99.90;;;;;;5047600;28;20761;-53
2021/04/21 09:31:15;;;;;;;116.38;61.42;;;13.10;99.90;;;;;;5045135;28;20025;-52
2021/04/21 09:33:41;;;;;;;413.08;87.32;;;13.10;99.90;;;;;;5050685;28;20541;-55
2021/04/21 09:36:06;;;;;;;112.45;59.08;;;13.20;99.90;;;;;;5032761;28;20063;-55
2021/04/21 09:38:32;;;;;;;89.88;53.80;;;13.40;99.90;;;;;;5047803;28;20032;-53
2021/04/21 09:41:03;;;;;;;99.65;55.80;;;13.30;99.90;;;;;;5038826;28;20025;-52
2021/04/21 09:43:34;;;;;;;99.93;56.15;;;13.40;99.90;;;;;;5036791;28;20029;-54
2021/04/21 09:46:20;;;;;;;101.97;55.75;;;13.60;99.90;;;;;;5036676;28;20465;-51
2021/04/21 09:48:46;;;;;;;96.82;54.25;;;13.60;99.90;;;;;;5028600;28;20467;-54
2021/04/21 09:51:15;;;;;;;96.32;54.05;;;13.80;99.90;;;;;;5048718;28;20067;-55
2021/04/21 09:53:43;;;;;;;91.32;49.28;;;13.90;99.90;;;;;;5050396;28;20068;-50
2021/04/21 09:56:20;;;;;;;80.45;48.40;;;14.00;99.90;;;;;;5048655;28;20033;-50
2021/04/21 09:58:50;;;;;;;87.13;50.55;;;14.20;99.90;;;;;;5042294;28;20487;-51
2021/04/21 10:01:16;;;;;;;178.23;58.38;;;14.40;99.90;;;;;;5042749;28;20441;-54
2021/04/21 10:03:42;;;;;;;87.30;50.00;;;14.30;99.90;;;;;;5051115;28;20020;-51
2021/04/21 10:06:21;;;;;;;94.97;50.30;;;14.20;99.90;;;;;;5052289;28;20368;-49
2021/04/21 10:08:48;;;;;;;86.38;50.55;;;14.50;99.90;;;;;;5050483;28;20033;-52
2021/04/21 10:11:14;;;;;;;87.45;52.03;;;14.50;99.90;;;;;;5049521;28;20036;-52
2021/04/21 10:13:53;;;;;;;84.15;49.35;;;14.60;99.90;;;;;;5055248;28;20036;-54
2021/04/21 10:16:20;;;;;;;82.45;48.67;;;14.60;99.90;;;;;;5051522;28;20025;-51
2021/04/21 10:18:46;;;;;;;88.97;50.30;;;14.80;99.90;;;;;;5050583;28;20024;-52
2021/04/21 10:21:13;;;;;;;88.93;52.25;;;14.80;99.90;;;;;;5052050;28;20078;-51
2021/04/21 10:23:40;;;;;;;95.18;52.75;;;14.80;99.90;;;;;;5052985;28;20040;-55
2021/04/21 10:26:08;;;;;;;93.18;53.92;;;14.80;99.90;;;;;;5053253;28;20023;-53
2021/04/21 10:28:37;;;;;;;93.97;52.22;;;14.90;99.90;;;;;;5054337;28;20048;-51
2021/04/21 10:31:04;;;;;;;83.63;49.45;;;15.20;99.90;;;;;;5050661;28;20575;-54
2021/04/21 10:33:31;;;;;;;83.95;49.72;;;15.30;99.90;;;;;;5052866;28;20078;-56
2021/04/21 10:35:57;;;;;;;81.18;50.97;;;15.40;99.90;;;;;;5055435;28;20479;-57
2021/04/21 10:38:25;;;;;;;88.85;52.13;;;15.40;99.90;;;;;;5056324;28;20076;-57
2021/04/21 10:41:21;;;;;;;94.18;53.70;;;15.50;99.90;;;;;;5060758;28;20453;-52
2021/04/21 10:43:48;;;;;;;94.53;54.47;;;15.50;99.90;;;;;;5054507;28;20402;-55
2021/04/21 10:46:14;;;;;;;85.72;54.38;;;15.40;99.90;;;;;;5055292;28;20025;-56
2021/04/21 10:48:43;;;;;;;88.18;52.72;;;15.20;99.90;;;;;;5056059;28;20407;-58
2021/04/21 10:51:40;;;;;;;94.13;53.60;;;15.30;99.90;;;;;;5056044;28;20024;-56
2021/04/21 10:54:09;;;;;;;93.78;53.83;;;15.30;99.90;;;;;;5053668;28;20099;-54
2021/04/21 10:56:37;;;;;;;89.57;53.00;;;15.40;99.90;;;;;;5056015;28;20027;-56
2021/04/21 10:59:04;;;;;;;95.00;56.85;;;15.60;99.90;;;;;;5055903;28;20060;-57
2021/04/21 11:01:34;;;;;;;81.53;48.42;;;15.80;99.90;;;;;;5052680;28;20024;-56
2021/04/21 11:04:01;;;;;;;83.07;48.70;;;16.10;99.90;;;;;;5034689;28;20479;-56
2021/04/21 11:06:39;;;;;;;77.28;48.00;;;16.30;99.90;;;;;;5052622;28;20045;-53
2021/04/21 11:09:06;;;;;;;87.32;50.22;;;16.70;99.90;;;;;;5074907;22;20052;-57
2021/04/21 11:11:47;;;;;;;74.18;44.88;;;16.60;99.90;;;;;;5048172;28;20025;-55
2021/04/21 11:14:36;;;;;;;67.68;42.42;;;17.00;99.90;;;;;;5036054;28;20407;-55
2021/04/21 11:17:06;;;;;;;72.85;42.10;;;17.30;99.90;;;;;;5045936;28;20051;-56
2021/04/21 11:19:39;;;;;;;66.55;41.42;;;17.70;99.90;;;;;;5053830;28;20055;-55
2021/04/21 11:22:29;;;;;;;71.18;43.70;;;17.90;99.90;;;;;;5068080;28;20024;-55
2021/04/21 11:25:19;;;;;;;70.80;43.45;;;18.00;99.90;;;;;;5063062;28;20139;-55
2021/04/21 11:27:46;;;;;;;70.05;42.05;;;18.20;99.90;;;;;;5066379;28;20620;-56
2021/04/21 11:30:36;;;;;;;61.33;38.22;;;18.00;99.90;;;;;;5067651;28;20036;-56
2021/04/21 11:33:02;;;;;;;52.70;36.42;;;17.80;99.90;;;;;;5048249;28;20021;-55
2021/04/21 11:35:30;;;;;;;56.00;38.17;;;18.00;99.90;;;;;;5065500;28;20451;-56
2021/04/21 11:37:55;;;;;;;52.42;35.90;;;18.10;99.90;;;;;;5067778;28;20028;-55
2021/04/21 11:40:31;;;;;;;55.50;34.83;;;18.30;99.90;;;;;;5065304;28;20386;-54
2021/04/21 11:43:17;;;;;;;56.30;34.17;;;18.50;99.90;;;;;;5065140;28;20090;-54
2021/04/21 11:45:43;;;;;;;55.25;35.17;;;18.40;99.90;;;;;;5039349;28;20033;-56
2021/04/21 11:48:09;;;;;;;52.65;33.20;;;18.50;99.90;;;;;;5063936;28;20032;-54
2021/04/21 11:50:38;;;;;;;48.25;30.17;;;18.50;99.90;;;;;;5061430;28;20096;-52
2021/04/21 11:53:06;;;;;;;44.83;29.50;;;18.50;99.90;;;;;;5066234;28;20028;-54
2021/04/21 11:55:55;;;;;;;40.28;27.30;;;18.90;99.90;;;;;;5069921;28;20033;-53
2021/04/21 11:58:32;;;;;;;45.17;28.00;;;19.10;99.90;;;;;;5065777;28;20037;-55
2021/04/21 12:01:10;;;;;;;47.28;30.88;;;19.50;99.90;;;;;;5059924;28;20036;-55
2021/04/21 12:03:36;;;;;;;41.90;28.58;;;19.90;99.90;;;;;;5064718;28;20483;-56
2021/04/21 12:06:13;;;;;;;39.33;21.75;;;19.60;99.90;;;;;;5045930;28;20039;-55
2021/04/21 12:08:41;;;;;;;32.15;21.35;;;19.50;99.90;;;;;;5062861;28;20013;-53
2021/04/21 12:11:09;;;;;;;38.10;24.00;;;19.30;99.90;;;;;;5067376;28;20502;-54
2021/04/21 12:13:36;;;;;;;42.30;25.55;;;19.50;99.90;;;;;;5063388;28;20028;-56
2021/04/21 12:16:23;;;;;;;44.40;27.75;;;19.00;99.90;;;;;;5063724;28;20035;-56
2021/04/21 12:18:53;;;;;;;36.60;23.20;;;18.90;99.90;;;;;;5066234;28;20028;-53
2021/04/21 12:21:19;;;;;;;30.67;17.85;;;19.10;99.90;;;;;;5064309;28;20032;-55
2021/04/21 12:23:52;;;;;;;39.92;20.52;;;19.10;98.80;;;;;;5065663;28;20482;-56
2021/04/21 12:26:24;;;;;;;37.25;23.58;;;19.30;98.70;;;;;;5069171;28;20104;-56
2021/04/21 12:29:10;;;;;;;36.75;21.95;;;19.00;99.00;;;;;;5069141;28;20036;-56
2021/04/21 12:31:37;;;;;;;35.28;22.60;;;19.30;98.70;;;;;;5061876;28;20024;-56
2021/04/21 12:34:04;;;;;;;37.20;21.65;;;19.10;96.90;;;;;;5067338;28;20078;-55
2021/04/21 12:36:35;;;;;;;31.67;19.67;;;19.30;98.40;;;;;;5068478;28;20021;-52
2021/04/21 12:39:00;;;;;;;33.95;20.15;;;19.50;98.40;;;;;;5067603;28;20032;-53
2021/04/21 12:41:26;;;;;;;35.25;21.40;;;19.50;95.60;;;;;;5070327;28;20680;-54
2021/04/21 12:43:52;;;;;;;32.50;21.13;;;19.50;96.20;;;;;;5068384;28;20103;-56
2021/04/21 12:46:23;;;;;;;35.10;19.73;;;19.50;95.00;;;;;;5045803;28;20104;-55
2021/04/21 12:48:54;;;;;;;36.22;19.48;;;19.70;95.20;;;;;;5063673;28;20025;-55
2021/04/21 12:51:29;;;;;;;27.63;17.70;;;19.90;94.30;;;;;;5063284;28;20032;-56
2021/04/21 12:53:56;;;;;;;31.63;17.60;;;20.00;94.80;;;;;;5067643;28;20039;-56
2021/04/21 12:56:21;;;;;;;24.02;17.02;;;19.80;93.50;;;;;;5066571;28;20032;-55
2021/04/21 12:58:47;;;;;;;26.85;17.17;;;19.80;93.60;;;;;;5069915;28;20394;-54